createdAt,value
2022-08-23T00:01:28.412Z,56.30
2022-08-23T00:04:01.739Z,56.10
2022-08-23T00:06:29.443Z,55.80
2022-08-23T00:08:56.746Z,55.40
2022-08-23T00:12:05.126Z,55.50
2022-08-23T00:14:35.267Z,55.70
2022-08-23T00:17:03.496Z,55.70
2022-08-23T00:19:30.619Z,55.50
2022-08-23T00:21:57.713Z,55.40
2022-08-23T00:24:26.309Z,55.20
2022-08-23T00:27:12.759Z,54.90
2022-08-23T00:29:44.175Z,54.70
2022-08-23T00:32:15.248Z,54.70
2022-08-23T00:34:42.760Z,54.70
2022-08-23T00:37:11.474Z,54.70
2022-08-23T00:39:40.400Z,54.90
2022-08-23T00:42:32.675Z,55.00
2022-08-23T00:45:21.642Z,54.70
2022-08-23T00:47:50.983Z,54.40
2022-08-23T00:50:36.705Z,54.20
2022-08-23T00:53:06.459Z,54.10
2022-08-23T00:55:35.081Z,54.30
2022-08-23T00:58:02.706Z,54.70
2022-08-23T01:00:30.207Z,54.80
2022-08-23T01:02:57.813Z,54.70
2022-08-23T01:05:33.108Z,54.80
2022-08-23T01:08:01.182Z,54.90
2022-08-23T01:10:32.631Z,55.10
2022-08-23T01:13:21.159Z,55.10
2022-08-23T01:16:02.891Z,55.30
2022-08-23T01:18:31.640Z,55.70
2022-08-23T01:21:10.541Z,55.90
2022-08-23T01:23:51.871Z,55.90
2022-08-23T01:26:22.219Z,55.80
2022-08-23T01:28:51.275Z,56.00
2022-08-23T01:31:19.030Z,56.10
2022-08-23T01:33:56.319Z,56.20
2022-08-23T01:36:23.726Z,56.50
2022-08-23T01:38:53.153Z,56.40
2022-08-23T01:41:20.698Z,56.60
2022-08-23T01:43:47.884Z,56.70
2022-08-23T01:46:21.325Z,56.70
2022-08-23T01:48:50.390Z,56.90
2022-08-23T01:51:20.267Z,57.00
2022-08-23T01:53:47.851Z,56.90
2022-08-23T01:56:27.585Z,56.70
2022-08-23T01:59:10.202Z,56.90
2022-08-23T02:01:42.839Z,57.00
2022-08-23T02:04:09.814Z,57.00
2022-08-23T02:06:38.575Z,57.00
2022-08-23T02:09:17.590Z,57.10
2022-08-23T02:11:46.840Z,57.30
2022-08-23T02:14:18.416Z,57.40
2022-08-23T02:17:03.822Z,57.50
2022-08-23T02:19:36.104Z,57.40
2022-08-23T02:22:05.258Z,57.00
2022-08-23T02:24:32.331Z,56.90
2022-08-23T02:27:05.286Z,57.00
2022-08-23T02:29:39.206Z,56.90
2022-08-23T02:32:09.618Z,56.90
2022-08-23T02:34:37.613Z,56.80
2022-08-23T02:37:06.675Z,56.90
2022-08-23T02:39:35.333Z,57.20
2022-08-23T02:42:02.952Z,57.70
2022-08-23T02:44:34.804Z,57.50
2022-08-23T02:47:03.202Z,57.30
2022-08-23T02:49:30.460Z,57.30
2022-08-23T02:51:57.469Z,57.20
2022-08-23T02:54:24.619Z,57.30
2022-08-23T02:56:52.743Z,57.30
2022-08-23T02:59:19.952Z,57.40
2022-08-23T03:01:47.861Z,57.50
2022-08-23T03:04:27.411Z,57.40
2022-08-23T03:06:55.482Z,57.20
2022-08-23T03:09:23.303Z,57.20
2022-08-23T03:11:50.835Z,57.40
2022-08-23T03:14:19.991Z,57.80
2022-08-23T03:16:48.224Z,57.90
2022-08-23T03:19:15.576Z,57.80
2022-08-23T03:21:45.395Z,57.80
2022-08-23T03:24:14.708Z,57.90
2022-08-23T03:26:44.265Z,57.90
2022-08-23T03:29:12.245Z,57.70
2022-08-23T03:31:56.764Z,57.40
2022-08-23T03:34:25.350Z,57.40
2022-08-23T03:36:52.864Z,57.70
2022-08-23T03:39:20.337Z,57.90
2022-08-23T03:41:47.788Z,57.80
2022-08-23T03:44:15.351Z,57.60
2022-08-23T03:46:44.416Z,57.50
2022-08-23T03:49:11.869Z,57.60
2022-08-23T03:51:52.335Z,57.80
2022-08-23T03:54:20.063Z,58.30
2022-08-23T03:57:00.573Z,58.40
2022-08-23T03:59:32.644Z,58.70
2022-08-23T04:02:00.598Z,58.80
2022-08-23T04:04:29.103Z,58.90
2022-08-23T04:07:19.577Z,59.10
2022-08-23T04:09:53.086Z,59.00
2022-08-23T04:12:23.396Z,58.90
2022-08-23T04:14:50.795Z,58.80
2022-08-23T04:17:21.022Z,58.90
2022-08-23T04:19:49.511Z,58.90
2022-08-23T04:22:18.780Z,58.80
2022-08-23T04:24:47.414Z,58.80
2022-08-23T04:27:15.366Z,58.50
2022-08-23T04:29:43.464Z,58.40
2022-08-23T04:32:12.059Z,58.40
2022-08-23T04:34:42.401Z,58.30
2022-08-23T04:37:14.197Z,58.30
2022-08-23T04:40:00.389Z,58.20
2022-08-23T04:42:34.492Z,58.20
2022-08-23T04:45:01.751Z,57.90
2022-08-23T04:47:29.627Z,57.60
2022-08-23T04:49:59.866Z,57.80
2022-08-23T04:52:26.963Z,57.80
2022-08-23T04:54:55.109Z,57.80
2022-08-23T04:57:43.387Z,57.60
2022-08-23T05:00:14.309Z,57.60
2022-08-23T05:02:49.420Z,57.50
2022-08-23T05:05:16.829Z,57.20
2022-08-23T05:07:45.571Z,57.00
2022-08-23T05:10:15.616Z,56.60
2022-08-23T05:12:48.397Z,56.50
2022-08-23T05:15:17.173Z,56.30
2022-08-23T05:17:47.652Z,55.30
2022-08-23T05:20:17.835Z,54.00
2022-08-23T05:22:46.087Z,52.80
2022-08-23T05:25:53.211Z,52.20
2022-08-23T05:28:52.763Z,52.10
2022-08-23T05:31:27.775Z,51.00
2022-08-23T05:33:59.388Z,48.90
2022-08-23T05:37:01.688Z,47.40
2022-08-23T05:39:36.285Z,46.30
2022-08-23T05:42:12.045Z,45.50
2022-08-23T05:44:39.295Z,44.00
2022-08-23T05:47:11.355Z,43.00
2022-08-23T05:50:05.873Z,42.70
2022-08-23T05:52:36.378Z,42.40
2022-08-23T05:55:04.431Z,41.90
2022-08-23T05:57:51.647Z,41.70
2022-08-23T06:00:19.264Z,41.60
2022-08-23T06:02:47.101Z,41.40
2022-08-23T06:05:15.234Z,40.70
2022-08-23T06:07:44.371Z,39.60
2022-08-23T06:10:15.961Z,39.20
2022-08-23T06:12:48.134Z,38.30
2022-08-23T06:15:15.471Z,38.00
2022-08-23T06:17:42.725Z,37.50
2022-08-23T06:20:10.784Z,36.70
2022-08-23T06:22:55.479Z,36.60
2022-08-23T06:25:22.815Z,36.40
2022-08-23T06:27:59.563Z,35.70
2022-08-23T06:30:27.947Z,35.70
2022-08-23T06:33:04.917Z,35.20
2022-08-23T06:35:39.166Z,34.80
2022-08-23T06:38:30.275Z,35.00
2022-08-23T06:41:02.023Z,35.10
2022-08-23T06:43:40.871Z,35.10
2022-08-23T06:46:23.719Z,34.70
2022-08-23T06:48:53.179Z,34.50
2022-08-23T06:51:26.730Z,34.30
2022-08-23T06:54:06.425Z,34.10
2022-08-23T06:57:05.832Z,33.70
2022-08-23T06:59:48.241Z,33.60
2022-08-23T07:02:27.849Z,33.50
2022-08-23T07:04:55.863Z,33.40
2022-08-23T07:07:44.065Z,33.00
2022-08-23T07:10:14.405Z,32.90
2022-08-23T07:12:42.969Z,32.70
2022-08-23T07:15:12.852Z,32.50
2022-08-23T07:17:43.189Z,32.60
2022-08-23T07:20:10.536Z,33.10
2022-08-23T07:22:40.535Z,33.50
2022-08-23T07:25:09.230Z,33.90
2022-08-23T07:27:37.744Z,33.90
2022-08-23T07:30:08.227Z,33.90
2022-08-23T07:32:37.803Z,34.10
2022-08-23T07:35:26.356Z,34.20
2022-08-23T07:37:57.383Z,34.30
2022-08-23T07:40:29.667Z,34.40
2022-08-23T07:42:58.704Z,34.50
2022-08-23T07:45:26.861Z,34.60
2022-08-23T07:48:01.905Z,34.80
2022-08-23T07:50:33.301Z,35.00
2022-08-23T07:53:03.368Z,35.20
2022-08-23T07:55:30.884Z,34.90
2022-08-23T07:58:19.835Z,34.60
2022-08-23T08:00:54.492Z,34.90
2022-08-23T08:03:40.411Z,35.30
2022-08-23T08:06:30.893Z,35.00
2022-08-23T08:08:59.386Z,35.10
2022-08-23T08:11:34.268Z,35.00
2022-08-23T08:14:07.972Z,34.30
2022-08-23T08:16:43.479Z,34.30
2022-08-23T08:19:15.312Z,34.60
2022-08-23T08:21:47.129Z,35.00
2022-08-23T08:24:34.451Z,34.40
2022-08-23T08:27:07.901Z,34.60
2022-08-23T08:29:35.354Z,35.00
2022-08-23T08:32:02.621Z,34.90
2022-08-23T08:34:29.803Z,34.90
2022-08-23T08:36:58.994Z,34.30
2022-08-23T08:39:31.401Z,33.90
2022-08-23T08:42:23.938Z,34.50
2022-08-23T08:45:09.256Z,34.50
2022-08-23T08:47:49.655Z,34.10
2022-08-23T08:50:26.639Z,34.00
2022-08-23T08:53:35.813Z,33.90
2022-08-23T08:56:21.512Z,33.80
2022-08-23T08:59:07.091Z,33.70
2022-08-23T09:01:38.236Z,33.70
2022-08-23T09:04:07.755Z,33.70
2022-08-23T09:06:47.485Z,33.40
2022-08-23T09:09:46.827Z,32.80
2022-08-23T09:12:33.005Z,32.40
2022-08-23T09:15:20.686Z,32.70
2022-08-23T09:18:07.313Z,32.90
2022-08-23T09:20:35.397Z,32.80
2022-08-23T09:23:10.990Z,32.70
2022-08-23T09:25:39.553Z,32.70
2022-08-23T09:28:16.809Z,32.90
2022-08-23T09:30:56.684Z,33.10
2022-08-23T09:33:37.891Z,33.40
2022-08-23T09:36:26.077Z,33.60
2022-08-23T09:39:00.250Z,33.00
2022-08-23T09:41:40.057Z,33.40
2022-08-23T09:44:13.690Z,33.00
2022-08-23T09:46:43.616Z,32.40
2022-08-23T09:49:30.009Z,31.70
2022-08-23T09:52:32.652Z,31.60
2022-08-23T09:55:06.948Z,32.00
2022-08-23T09:57:39.581Z,32.00
2022-08-23T10:00:23.374Z,32.00
2022-08-23T10:02:57.855Z,31.60
2022-08-23T10:05:40.203Z,31.90
2022-08-23T10:08:25.444Z,32.40
2022-08-23T10:10:56.670Z,31.40
2022-08-23T10:13:31.487Z,31.50
2022-08-23T10:16:29.085Z,30.90
2022-08-23T10:19:41.519Z,30.80
2022-08-23T10:22:18.566Z,30.60
2022-08-23T10:25:12.555Z,30.80
2022-08-23T10:28:20.741Z,30.50
2022-08-23T10:31:15.373Z,30.20
2022-08-23T10:34:14.487Z,30.60
2022-08-23T10:37:04.916Z,30.80
2022-08-23T10:39:32.528Z,30.00
2022-08-23T10:42:13.540Z,29.90
2022-08-23T10:45:16.962Z,29.90
2022-08-23T10:48:29.246Z,29.30
2022-08-23T10:51:10.611Z,29.70
2022-08-23T10:53:47.355Z,29.90
2022-08-23T10:56:21.021Z,29.70
2022-08-23T10:58:59.981Z,29.10
2022-08-23T11:01:50.846Z,28.80
2022-08-23T11:04:43.854Z,28.40
2022-08-23T11:07:43.474Z,28.60
2022-08-23T11:10:56.429Z,28.80
2022-08-23T11:13:30.426Z,29.10
2022-08-23T11:16:28.908Z,29.20
2022-08-23T11:18:57.902Z,29.20
2022-08-23T11:21:46.801Z,28.90
2022-08-23T11:24:16.460Z,28.70
2022-08-23T11:26:45.003Z,28.80
2022-08-23T11:29:24.812Z,29.10
2022-08-23T11:32:32.169Z,28.80
2022-08-23T11:35:09.590Z,28.20
2022-08-23T11:38:04.252Z,28.00
2022-08-23T11:40:51.407Z,28.90
2022-08-23T11:43:32.801Z,29.40
2022-08-23T11:46:28.435Z,29.60
2022-08-23T11:49:23.439Z,29.70
2022-08-23T11:52:07.330Z,30.20
2022-08-23T11:54:59.229Z,32.60
2022-08-23T11:57:34.454Z,35.20
2022-08-23T12:00:29.219Z,37.80
2022-08-23T12:03:06.565Z,39.30
2022-08-23T12:05:51.665Z,40.40
2022-08-23T12:08:23.058Z,40.80
2022-08-23T12:10:51.080Z,41.40
2022-08-23T12:13:21.119Z,39.60
2022-08-23T12:16:23.967Z,37.20
2022-08-23T12:18:51.238Z,34.90
2022-08-23T12:21:23.670Z,33.60
2022-08-23T12:24:20.886Z,31.90
2022-08-23T12:27:00.644Z,30.90
2022-08-23T12:29:37.764Z,31.30
2022-08-23T12:32:30.414Z,31.10
2022-08-23T12:35:16.117Z,30.80
2022-08-23T12:37:52.712Z,30.00
2022-08-23T12:40:42.704Z,29.80
2022-08-23T12:43:17.712Z,29.30
2022-08-23T12:45:59.361Z,29.20
2022-08-23T12:48:30.976Z,29.60
2022-08-23T12:51:07.148Z,29.40
2022-08-23T12:53:42.633Z,29.40
2022-08-23T12:56:31.988Z,29.10
2022-08-23T12:59:07.512Z,29.20
2022-08-23T13:01:38.467Z,29.10
2022-08-23T13:04:13.823Z,28.70
2022-08-23T13:06:44.761Z,28.50
2022-08-23T13:09:35.235Z,28.50
2022-08-23T13:12:03.545Z,28.40
2022-08-23T13:14:49.107Z,28.50
2022-08-23T13:17:23.806Z,28.80
2022-08-23T13:20:18.665Z,29.40
2022-08-23T13:23:04.780Z,29.10
2022-08-23T13:25:41.012Z,29.00
2022-08-23T13:28:27.078Z,29.00
2022-08-23T13:31:08.059Z,29.60
2022-08-23T13:33:35.832Z,30.10
2022-08-23T13:36:14.872Z,30.20
2022-08-23T13:38:44.073Z,30.00
2022-08-23T13:41:28.648Z,30.00
2022-08-23T13:43:55.717Z,30.50
2022-08-23T13:46:26.857Z,31.00
2022-08-23T13:49:05.160Z,31.50
2022-08-23T13:51:41.731Z,32.20
2022-08-23T13:54:14.625Z,32.90
2022-08-23T13:56:48.248Z,34.00
2022-08-23T13:59:31.210Z,34.30
2022-08-23T14:02:04.798Z,35.00
2022-08-23T14:04:31.757Z,35.40
2022-08-23T14:06:58.775Z,35.40
2022-08-23T14:09:25.784Z,35.90
2022-08-23T14:11:57.772Z,36.00
2022-08-23T14:14:25.532Z,36.20
2022-08-23T14:16:54.488Z,36.50
2022-08-23T14:22:08.873Z,37.30
2022-08-23T14:24:35.864Z,37.90
2022-08-23T14:27:02.978Z,38.00
2022-08-23T14:29:30.158Z,38.20
2022-08-23T14:31:59.615Z,38.20
2022-08-23T14:34:28.531Z,38.00
2022-08-23T14:39:42.585Z,38.60
2022-08-23T14:42:11.141Z,39.00
2022-08-23T14:44:38.178Z,38.90
2022-08-23T14:47:06.496Z,39.00
2022-08-23T14:49:34.038Z,39.10
2022-08-23T14:52:01.344Z,38.70
2022-08-23T14:54:28.360Z,38.00
2022-08-23T14:56:55.367Z,37.30
2022-08-23T14:59:22.454Z,37.00
2022-08-23T15:01:52.611Z,36.70
2022-08-23T15:04:21.782Z,36.10
2022-08-23T15:07:16.059Z,35.70
2022-08-23T15:09:36.670Z,36.00
2022-08-23T15:14:50.937Z,36.80
2022-08-23T15:17:17.892Z,36.80
2022-08-23T15:19:44.873Z,37.40
2022-08-23T15:22:21.856Z,37.50
2022-08-23T15:24:49.813Z,37.80
2022-08-23T15:27:18.531Z,38.40
2022-08-23T15:29:45.827Z,38.80
2022-08-23T15:32:13.071Z,39.30
2022-08-23T15:34:46.136Z,40.10
2022-08-23T15:37:14.245Z,40.30
2022-08-23T15:39:42.224Z,41.50
2022-08-23T15:42:09.438Z,41.50
2022-08-23T15:44:36.458Z,41.60
2022-08-23T15:47:05.809Z,42.00
2022-08-23T15:49:36.465Z,42.00
2022-08-23T15:52:04.859Z,42.30
2022-08-23T15:54:32.285Z,42.30
2022-08-23T15:57:00.519Z,42.70
2022-08-23T15:59:28.256Z,42.80
2022-08-23T16:01:55.254Z,42.80
2022-08-23T16:04:22.224Z,43.30
2022-08-23T16:06:49.843Z,43.30
2022-08-23T16:09:20.909Z,43.30
2022-08-23T16:11:48.244Z,43.60
2022-08-23T16:14:15.374Z,43.70
2022-08-23T16:16:46.389Z,43.70
2022-08-23T16:19:14.350Z,43.90
2022-08-23T16:21:44.983Z,43.80
2022-08-23T16:24:11.987Z,44.00
2022-08-23T16:26:43.706Z,44.40
2022-08-23T16:29:17.183Z,44.40
2022-08-23T16:31:45.296Z,44.70
2022-08-23T16:34:19.143Z,44.90
2022-08-23T16:36:50.339Z,45.10
2022-08-23T16:39:18.060Z,45.80
2022-08-23T16:41:45.307Z,45.90
2022-08-23T16:44:12.708Z,46.10
2022-08-23T16:46:42.706Z,46.90
2022-08-23T16:49:11.102Z,46.60
2022-08-23T16:51:38.149Z,46.90
2022-08-23T16:54:06.047Z,47.20
2022-08-23T16:56:34.103Z,47.80
2022-08-23T16:59:02.167Z,47.90
2022-08-23T17:01:30.024Z,48.20
2022-08-23T17:03:57.087Z,48.40
2022-08-23T17:06:24.058Z,48.60
2022-08-23T17:08:51.033Z,48.70
2022-08-23T17:11:19.879Z,49.40
2022-08-23T17:13:47.531Z,48.80
2022-08-23T17:16:14.667Z,49.00
2022-08-23T17:18:41.803Z,49.20
2022-08-23T17:21:09.314Z,49.40
2022-08-23T17:23:40.796Z,49.60
2022-08-23T17:26:09.641Z,50.00
2022-08-23T17:28:37.199Z,50.10
2022-08-23T17:31:04.688Z,50.10
2022-08-23T17:33:31.672Z,49.90
2022-08-23T17:35:58.710Z,50.20
2022-08-23T17:38:25.838Z,50.30
2022-08-23T17:40:52.944Z,50.60
2022-08-23T17:43:19.886Z,51.20
2022-08-23T17:45:49.721Z,51.50
2022-08-23T17:48:18.487Z,51.80
2022-08-23T17:50:46.322Z,52.00
2022-08-23T17:53:15.167Z,52.40
2022-08-23T17:55:42.606Z,52.80
2022-08-23T17:58:10.243Z,53.20
2022-08-23T18:00:39.173Z,53.40
2022-08-23T18:03:06.856Z,53.80
2022-08-23T18:05:34.632Z,54.10
2022-08-23T18:08:01.725Z,54.50
2022-08-23T18:10:30.058Z,54.90
2022-08-23T18:12:58.050Z,55.20
2022-08-23T18:15:26.688Z,55.50
2022-08-23T18:17:58.369Z,55.60
2022-08-23T18:20:27.123Z,55.80
2022-08-23T18:22:57.874Z,56.10
2022-08-23T18:25:25.985Z,56.40
2022-08-23T18:28:09.999Z,56.50
2022-08-23T18:30:44.675Z,56.70
2022-08-23T18:33:12.968Z,56.90
2022-08-23T18:35:40.854Z,57.00
2022-08-23T18:38:08.409Z,57.30
2022-08-23T18:40:45.719Z,57.40
2022-08-23T18:43:19.412Z,57.40
2022-08-23T18:45:48.252Z,57.60
2022-08-23T18:48:16.363Z,57.80
2022-08-23T18:50:44.115Z,57.90
2022-08-23T18:53:12.852Z,58.00
2022-08-23T18:55:43.962Z,58.20
2022-08-23T18:58:11.842Z,58.40
2022-08-23T19:00:39.784Z,58.40
2022-08-23T19:03:07.676Z,58.60
2022-08-23T19:05:42.039Z,58.70
2022-08-23T19:08:11.484Z,58.80
2022-08-23T19:10:39.251Z,58.90
2022-08-23T19:13:06.666Z,59.00
2022-08-23T19:15:34.385Z,59.10
2022-08-23T19:18:02.232Z,59.10
2022-08-23T19:20:30.026Z,59.20
2022-08-23T19:22:57.333Z,59.30
2022-08-23T19:25:24.638Z,59.40
2022-08-23T19:27:52.440Z,59.50
2022-08-23T19:30:19.947Z,59.60
2022-08-23T19:32:47.216Z,59.70
2022-08-23T19:35:14.604Z,59.80
2022-08-23T19:37:42.039Z,59.80
2022-08-23T19:40:09.768Z,59.80
2022-08-23T19:42:37.726Z,60.00
2022-08-23T19:45:06.374Z,60.00
2022-08-23T19:47:34.764Z,60.20
2022-08-23T19:50:04.755Z,60.30
2022-08-23T19:52:32.312Z,60.40
2022-08-23T19:55:05.733Z,60.60
2022-08-23T19:57:35.581Z,60.80
2022-08-23T20:00:09.776Z,61.00
2022-08-23T20:02:36.851Z,61.10
2022-08-23T20:05:06.689Z,61.10
2022-08-23T20:07:36.192Z,61.40
2022-08-23T20:10:04.807Z,62.20
2022-08-23T20:12:33.179Z,62.50
2022-08-23T20:15:01.201Z,61.80
2022-08-23T20:17:28.251Z,61.90
2022-08-23T20:19:55.181Z,61.90
2022-08-23T20:22:40.535Z,62.00
2022-08-23T20:25:08.360Z,62.10
2022-08-23T20:27:38.856Z,62.40
2022-08-23T20:30:08.788Z,62.50
2022-08-23T20:32:36.612Z,62.60
2022-08-23T20:35:06.761Z,62.70
2022-08-23T20:37:34.492Z,62.90
2022-08-23T20:40:01.790Z,63.10
2022-08-23T20:42:28.927Z,63.10
2022-08-23T20:44:56.131Z,63.30
2022-08-23T20:47:23.237Z,63.40
2022-08-23T20:49:50.635Z,63.50
2022-08-23T20:52:18.400Z,63.60
2022-08-23T20:54:46.014Z,63.70
2022-08-23T20:57:13.199Z,63.80
2022-08-23T20:59:44.449Z,63.90
2022-08-23T21:02:12.395Z,63.90
2022-08-23T21:04:40.172Z,64.00
2022-08-23T21:07:08.498Z,64.00
2022-08-23T21:09:36.083Z,64.10
2022-08-23T21:12:03.387Z,64.20
2022-08-23T21:14:30.322Z,64.30
2022-08-23T21:16:57.237Z,64.40
2022-08-23T21:19:24.297Z,64.60
2022-08-23T21:21:51.362Z,64.70
2022-08-23T21:24:18.444Z,64.90
2022-08-23T21:26:45.821Z,65.00
2022-08-23T21:29:12.922Z,65.10
2022-08-23T21:31:40.104Z,65.30
2022-08-23T21:34:08.297Z,65.30
2022-08-23T21:36:36.193Z,65.30
2022-08-23T21:39:04.044Z,65.50
2022-08-23T21:41:40.992Z,65.50
2022-08-23T21:44:11.455Z,65.50
2022-08-23T21:46:39.038Z,65.60
2022-08-23T21:49:07.889Z,65.80
2022-08-23T21:51:35.363Z,65.80
2022-08-23T21:54:02.850Z,65.90
2022-08-23T21:56:30.257Z,66.10
2022-08-23T21:59:02.343Z,66.20
2022-08-23T22:01:31.211Z,66.30
2022-08-23T22:03:59.156Z,66.30
2022-08-23T22:06:27.373Z,66.30
2022-08-23T22:08:54.644Z,66.50
2022-08-23T22:11:23.994Z,66.50
2022-08-23T22:13:53.814Z,66.70
2022-08-23T22:16:21.554Z,66.70
2022-08-23T22:18:48.893Z,66.80
2022-08-23T22:21:15.896Z,66.90
2022-08-23T22:23:44.598Z,67.00
2022-08-23T22:26:12.680Z,67.10
2022-08-23T22:28:40.305Z,67.20
2022-08-23T22:31:07.650Z,67.30
2022-08-23T22:33:35.311Z,67.40
2022-08-23T22:36:05.636Z,67.40
2022-08-23T22:38:32.685Z,67.30
2022-08-23T22:40:59.710Z,67.40
2022-08-23T22:43:27.127Z,67.50
2022-08-23T22:45:57.159Z,67.60
2022-08-23T22:48:25.313Z,67.70
2022-08-23T22:51:03.803Z,67.80
2022-08-23T22:53:30.862Z,68.00
2022-08-23T22:55:58.317Z,68.00
2022-08-23T22:58:25.293Z,68.10
2022-08-23T23:00:52.376Z,68.20
2022-08-23T23:03:19.327Z,68.30
2022-08-23T23:05:46.539Z,68.30
2022-08-23T23:08:28.785Z,68.30
2022-08-23T23:10:56.936Z,68.40
2022-08-23T23:13:24.823Z,68.40
2022-08-23T23:15:51.932Z,68.50
2022-08-23T23:18:19.295Z,68.60
2022-08-23T23:20:46.655Z,68.70
2022-08-23T23:23:17.363Z,68.80
2022-08-23T23:25:46.143Z,68.80
2022-08-23T23:28:14.582Z,68.90
2022-08-23T23:30:44.745Z,69.00
2022-08-23T23:33:12.840Z,69.10
2022-08-23T23:35:40.299Z,69.20
2022-08-23T23:38:07.392Z,69.30
2022-08-23T23:40:34.749Z,69.30
2022-08-23T23:43:01.783Z,69.40
2022-08-23T23:45:29.713Z,69.50
2022-08-23T23:47:56.945Z,69.60
2022-08-23T23:50:24.184Z,69.60
2022-08-23T23:52:51.308Z,69.70
2022-08-23T23:55:20.355Z,69.70
2022-08-23T23:57:47.464Z,69.80
